createdAt,value
2023-03-18T00:00:49.253Z,99.90
2023-03-18T00:03:18.753Z,99.90
2023-03-18T00:05:47.063Z,99.90
2023-03-18T00:08:14.986Z,99.90
2023-03-18T00:10:43.043Z,99.90
2023-03-18T00:13:12.131Z,99.90
2023-03-18T00:15:40.874Z,99.90
2023-03-18T00:18:09.230Z,99.90
2023-03-18T00:20:41.717Z,99.90
2023-03-18T00:23:10.410Z,99.90
2023-03-18T00:25:39.418Z,99.90
2023-03-18T00:28:08.443Z,99.90
2023-03-18T00:30:39.904Z,99.90
2023-03-18T00:33:07.850Z,99.90
2023-03-18T00:35:36.433Z,99.90
2023-03-18T00:38:07.521Z,99.90
2023-03-18T00:40:53.141Z,99.90
2023-03-18T00:43:23.390Z,99.90
2023-03-18T00:45:51.895Z,99.90
2023-03-18T00:48:19.840Z,99.90
2023-03-18T00:50:47.791Z,99.90
2023-03-18T00:53:18.185Z,99.90
2023-03-18T00:55:46.952Z,99.90
2023-03-18T00:58:14.973Z,99.90
2023-03-18T01:00:43.365Z,99.90
2023-03-18T01:03:11.386Z,99.90
2023-03-18T01:05:39.706Z,99.90
2023-03-18T01:08:07.848Z,99.90
2023-03-18T01:10:37.111Z,99.90
2023-03-18T01:13:05.069Z,99.90
2023-03-18T01:15:33.086Z,99.90
2023-03-18T01:18:01.251Z,99.90
2023-03-18T01:20:29.266Z,99.90
2023-03-18T01:22:58.512Z,99.90
2023-03-18T01:25:27.245Z,99.90
2023-03-18T01:27:56.512Z,99.90
2023-03-18T01:30:24.651Z,99.90
2023-03-18T01:32:54.615Z,99.90
2023-03-18T01:35:23.077Z,99.90
2023-03-18T01:37:51.513Z,99.90
2023-03-18T01:40:20.810Z,99.90
2023-03-18T01:42:57.760Z,99.90
2023-03-18T01:45:29.470Z,99.90
2023-03-18T01:47:58.547Z,99.90
2023-03-18T01:50:32.307Z,99.90
2023-03-18T01:53:04.222Z,99.90
2023-03-18T01:55:33.366Z,99.90
2023-03-18T01:58:04.372Z,99.90
2023-03-18T02:00:34.404Z,99.90
2023-03-18T02:03:02.338Z,99.90
2023-03-18T02:05:30.693Z,99.90
2023-03-18T02:07:58.741Z,99.90
2023-03-18T02:10:28.549Z,99.90
2023-03-18T02:13:00.351Z,99.90
2023-03-18T02:15:30.191Z,99.90
2023-03-18T02:18:03.126Z,99.90
2023-03-18T02:20:42.633Z,99.90
2023-03-18T02:23:16.345Z,99.90
2023-03-18T02:25:51.148Z,99.90
2023-03-18T02:28:26.375Z,99.90
2023-03-18T02:30:58.394Z,99.90
2023-03-18T02:33:30.110Z,99.90
2023-03-18T02:36:03.191Z,99.90
2023-03-18T02:38:31.106Z,99.90
2023-03-18T02:40:59.201Z,99.90
2023-03-18T02:43:30.290Z,99.90
2023-03-18T02:46:15.959Z,99.90
2023-03-18T02:48:46.927Z,99.90
2023-03-18T02:51:17.229Z,99.90
2023-03-18T02:53:46.061Z,99.90
2023-03-18T02:58:45.945Z,99.90
2023-03-18T03:01:14.559Z,99.90
2023-03-18T03:03:43.990Z,99.90
2023-03-18T03:06:12.642Z,99.90
2023-03-18T03:08:41.272Z,99.90
2023-03-18T03:11:10.227Z,99.90
2023-03-18T03:13:39.591Z,99.90
2023-03-18T03:16:10.762Z,99.90
2023-03-18T03:18:38.865Z,99.90
2023-03-18T03:21:07.791Z,99.90
2023-03-18T03:23:36.066Z,99.90
2023-03-18T03:26:05.115Z,99.90
2023-03-18T03:28:33.504Z,99.90
2023-03-18T03:31:01.938Z,99.90
2023-03-18T03:33:31.474Z,99.90
2023-03-18T03:35:59.530Z,99.90
2023-03-18T03:38:28.365Z,99.90
2023-03-18T03:40:56.534Z,99.90
2023-03-18T03:43:24.453Z,99.90
2023-03-18T03:45:52.360Z,99.90
2023-03-18T03:48:20.302Z,99.90
2023-03-18T03:50:51.695Z,99.90
2023-03-18T03:53:19.716Z,99.90
2023-03-18T03:55:47.756Z,99.90
2023-03-18T03:58:15.955Z,99.90
2023-03-18T04:00:43.966Z,99.90
2023-03-18T04:03:12.045Z,99.90
2023-03-18T04:05:41.517Z,99.90
2023-03-18T04:08:10.770Z,99.90
2023-03-18T04:10:38.745Z,99.90
2023-03-18T04:13:07.098Z,99.90
2023-03-18T04:15:36.590Z,99.90
2023-03-18T04:18:06.993Z,99.90
2023-03-18T04:20:36.662Z,99.90
2023-03-18T04:23:04.930Z,99.90
2023-03-18T04:25:35.250Z,99.90
2023-03-18T04:28:03.527Z,99.90
2023-03-18T04:30:32.239Z,99.90
2023-03-18T04:33:01.381Z,99.90
2023-03-18T04:35:29.488Z,99.90
2023-03-18T04:37:57.439Z,99.90
2023-03-18T04:40:25.790Z,99.90
2023-03-18T04:42:55.012Z,99.90
2023-03-18T04:45:23.009Z,99.90
2023-03-18T04:47:51.157Z,99.90
2023-03-18T04:50:19.407Z,99.90
2023-03-18T04:52:47.448Z,99.90
2023-03-18T04:55:16.294Z,99.90
2023-03-18T04:57:44.595Z,99.90
2023-03-18T05:00:21.282Z,99.90
2023-03-18T05:02:49.763Z,99.90
2023-03-18T05:05:18.281Z,99.90
2023-03-18T05:07:46.257Z,99.90
2023-03-18T05:10:14.571Z,99.90
2023-03-18T05:12:43.523Z,99.90
2023-03-18T05:15:14.276Z,99.90
2023-03-18T05:17:42.454Z,99.90
2023-03-18T05:20:13.340Z,99.90
2023-03-18T05:22:42.034Z,99.90
2023-03-18T05:25:11.536Z,99.90
2023-03-18T05:27:39.866Z,99.90
2023-03-18T05:30:09.525Z,99.90
2023-03-18T05:32:38.965Z,99.90
2023-03-18T05:35:07.727Z,99.90
2023-03-18T05:37:35.877Z,99.90
2023-03-18T05:40:05.062Z,99.90
2023-03-18T05:42:35.181Z,99.90
2023-03-18T05:45:05.866Z,99.90
2023-03-18T05:47:33.909Z,99.90
2023-03-18T05:50:03.850Z,99.90
2023-03-18T05:52:31.974Z,99.90
2023-03-18T05:54:59.936Z,99.90
2023-03-18T05:57:28.416Z,99.90
2023-03-18T05:59:56.382Z,99.90
2023-03-18T06:02:25.010Z,99.90
2023-03-18T06:04:53.032Z,99.90
2023-03-18T06:07:22.652Z,99.90
2023-03-18T06:09:50.726Z,99.90
2023-03-18T06:12:23.028Z,99.90
2023-03-18T06:14:51.032Z,99.90
2023-03-18T06:17:18.996Z,99.90
2023-03-18T06:19:48.227Z,99.90
2023-03-18T06:22:16.804Z,99.90
2023-03-18T06:24:48.324Z,99.90
2023-03-18T06:27:16.534Z,99.90
2023-03-18T06:29:44.851Z,99.90
2023-03-18T06:32:12.829Z,99.90
2023-03-18T06:34:40.817Z,99.90
2023-03-18T06:37:09.620Z,99.90
2023-03-18T06:39:39.477Z,99.90
2023-03-18T06:42:10.817Z,99.90
2023-03-18T06:44:42.115Z,99.90
2023-03-18T06:47:10.292Z,99.90
2023-03-18T06:49:38.184Z,99.90
2023-03-18T06:52:06.210Z,99.90
2023-03-18T06:54:34.446Z,99.90
2023-03-18T06:57:02.548Z,99.90
2023-03-18T06:59:31.849Z,99.90
2023-03-18T07:01:59.917Z,99.90
2023-03-18T07:04:28.051Z,99.90
2023-03-18T07:06:56.303Z,99.90
2023-03-18T07:09:24.647Z,99.90
2023-03-18T07:11:53.621Z,99.90
2023-03-18T07:14:21.577Z,99.90
2023-03-18T07:16:51.104Z,99.90
2023-03-18T07:19:19.456Z,99.90
2023-03-18T07:21:47.643Z,99.90
2023-03-18T07:24:16.582Z,99.90
2023-03-18T07:26:45.427Z,99.90
2023-03-18T07:29:13.328Z,99.90
2023-03-18T07:31:41.512Z,99.90
2023-03-18T07:34:10.820Z,99.90
2023-03-18T07:36:39.181Z,99.90
2023-03-18T07:39:08.269Z,99.90
2023-03-18T07:41:37.789Z,99.90
2023-03-18T07:44:06.770Z,99.90
2023-03-18T07:46:35.144Z,99.90
2023-03-18T07:49:03.155Z,99.90
2023-03-18T07:51:35.366Z,99.90
2023-03-18T07:54:04.138Z,99.90
2023-03-18T07:56:32.122Z,99.90
2023-03-18T07:59:00.112Z,99.90
2023-03-18T08:01:28.946Z,99.90
2023-03-18T08:03:56.930Z,99.90
2023-03-18T08:06:25.261Z,99.90
2023-03-18T08:08:54.568Z,99.90
2023-03-18T08:11:22.546Z,99.90
2023-03-18T08:13:50.502Z,99.90
2023-03-18T08:16:18.721Z,99.90
2023-03-18T08:18:46.815Z,99.90
2023-03-18T08:21:15.375Z,99.90
2023-03-18T08:23:43.904Z,99.90
2023-03-18T08:26:13.434Z,99.90
2023-03-18T08:28:41.797Z,99.90
2023-03-18T08:31:09.813Z,99.90
2023-03-18T08:33:37.729Z,99.90
2023-03-18T08:36:06.129Z,99.90
2023-03-18T08:38:34.241Z,99.90
2023-03-18T08:41:02.200Z,99.90
2023-03-18T08:43:31.483Z,99.90
2023-03-18T08:45:59.599Z,99.90
2023-03-18T08:48:27.526Z,99.90
2023-03-18T08:50:55.407Z,99.90
2023-03-18T08:53:23.370Z,99.90
2023-03-18T08:55:51.311Z,99.90
2023-03-18T08:58:19.311Z,99.90
2023-03-18T09:00:50.118Z,99.90
2023-03-18T09:03:18.111Z,99.90
2023-03-18T09:05:49.149Z,99.90
2023-03-18T09:08:17.098Z,99.90
2023-03-18T09:10:46.450Z,99.90
2023-03-18T09:13:14.466Z,99.90
2023-03-18T09:15:43.055Z,99.90
2023-03-18T09:18:13.450Z,99.90
2023-03-18T09:20:41.586Z,99.90
2023-03-18T09:23:11.352Z,99.90
2023-03-18T09:25:39.387Z,99.90
2023-03-18T09:28:07.585Z,99.90
2023-03-18T09:30:35.789Z,99.90
2023-03-18T09:33:06.162Z,99.90
2023-03-18T09:35:36.499Z,99.90
2023-03-18T09:38:04.935Z,99.90
2023-03-18T09:40:36.254Z,99.90
2023-03-18T09:43:22.947Z,99.90
2023-03-18T09:45:59.958Z,99.90
2023-03-18T09:48:49.906Z,99.90
2023-03-18T09:51:34.860Z,99.90
2023-03-18T09:54:06.996Z,99.90
2023-03-18T09:56:37.716Z,99.90
2023-03-18T09:59:12.984Z,99.90
2023-03-18T10:01:42.074Z,99.90
2023-03-18T10:04:16.014Z,99.90
2023-03-18T10:06:49.851Z,99.90
2023-03-18T10:09:26.282Z,98.50
2023-03-18T10:12:00.429Z,96.80
2023-03-18T10:14:38.326Z,94.70
2023-03-18T10:17:18.923Z,92.60
2023-03-18T10:19:50.765Z,90.10
2023-03-18T10:22:50.479Z,81.90
2023-03-18T10:25:27.058Z,73.50
2023-03-18T10:28:10.237Z,66.40
2023-03-18T10:30:52.773Z,60.70
2023-03-18T10:33:32.619Z,56.10
2023-03-18T10:36:06.196Z,52.20
2023-03-18T10:38:38.740Z,48.50
2023-03-18T10:41:17.353Z,44.70
2023-03-18T10:43:46.933Z,42.20
2023-03-18T10:46:17.170Z,39.40
2023-03-18T10:48:48.822Z,38.20
2023-03-18T10:51:21.179Z,37.00
2023-03-18T10:53:58.696Z,36.40
2023-03-18T10:56:27.423Z,35.40
2023-03-18T10:58:56.371Z,33.70
2023-03-18T11:01:28.902Z,32.80
2023-03-18T11:04:03.275Z,32.10
2023-03-18T11:06:38.271Z,30.90
2023-03-18T11:09:10.962Z,30.60
2023-03-18T11:11:41.679Z,29.20
2023-03-18T11:14:17.042Z,28.70
2023-03-18T11:16:50.073Z,28.40
2023-03-18T11:19:29.782Z,28.10
2023-03-18T11:22:20.212Z,28.10
2023-03-18T11:25:02.964Z,27.70
2023-03-18T11:27:38.470Z,27.40
2023-03-18T11:30:24.313Z,27.40
2023-03-18T11:33:03.802Z,27.50
2023-03-18T11:35:37.967Z,27.50
2023-03-18T11:38:07.311Z,27.80
2023-03-18T11:40:40.745Z,29.00
2023-03-18T11:43:18.809Z,30.30
2023-03-18T11:45:58.951Z,31.90
2023-03-18T11:48:34.185Z,33.40
2023-03-18T11:51:24.568Z,34.80
2023-03-18T11:54:06.740Z,36.10
2023-03-18T11:56:39.362Z,37.20
2023-03-18T11:59:33.581Z,37.80
2023-03-18T12:02:17.606Z,38.70
2023-03-18T12:05:03.167Z,39.30
2023-03-18T12:07:51.740Z,39.70
2023-03-18T12:10:25.966Z,40.80
2023-03-18T12:13:11.745Z,41.60
2023-03-18T12:15:48.881Z,42.40
2023-03-18T12:18:31.088Z,42.80
2023-03-18T12:21:06.796Z,43.30
2023-03-18T12:23:57.926Z,44.00
2023-03-18T12:26:34.522Z,44.60
2023-03-18T12:29:42.608Z,45.30
2023-03-18T12:32:25.052Z,45.70
2023-03-18T12:35:03.708Z,46.10
2023-03-18T12:37:43.453Z,46.30
2023-03-18T12:40:24.151Z,46.50
2023-03-18T12:43:24.332Z,47.00
2023-03-18T12:45:59.537Z,47.40
2023-03-18T12:48:43.630Z,47.90
2023-03-18T12:51:16.240Z,48.40
2023-03-18T12:53:46.559Z,48.50
2023-03-18T12:56:19.627Z,48.60
2023-03-18T12:58:53.305Z,49.20
2023-03-18T13:01:28.016Z,49.40
2023-03-18T13:04:02.095Z,49.80
2023-03-18T13:06:35.404Z,50.30
2023-03-18T13:09:12.031Z,50.70
2023-03-18T13:11:59.713Z,51.30
2023-03-18T13:14:38.894Z,51.80
2023-03-18T13:17:12.900Z,52.40
2023-03-18T13:19:42.938Z,52.90
2023-03-18T13:22:28.378Z,53.50
2023-03-18T13:25:15.699Z,54.00
2023-03-18T13:27:54.221Z,54.60
2023-03-18T13:30:32.827Z,55.20
2023-03-18T13:33:37.926Z,55.70
2023-03-18T13:36:28.947Z,56.20
2023-03-18T13:39:16.821Z,56.70
2023-03-18T13:42:19.089Z,57.30
2023-03-18T13:44:53.878Z,58.00
2023-03-18T13:47:23.633Z,58.90
2023-03-18T13:50:03.502Z,60.50
2023-03-18T13:52:37.532Z,61.10
2023-03-18T13:55:08.970Z,62.60
2023-03-18T13:57:48.885Z,64.00
2023-03-18T14:00:33.247Z,65.50
2023-03-18T14:03:16.070Z,66.90
2023-03-18T14:05:46.908Z,68.50
2023-03-18T14:08:45.697Z,70.60
2023-03-18T14:11:51.154Z,73.10
2023-03-18T14:14:42.922Z,75.80
2023-03-18T14:17:25.529Z,78.60
2023-03-18T14:19:56.908Z,80.90
2023-03-18T14:22:35.639Z,83.20
2023-03-18T14:25:43.816Z,85.40
2023-03-18T14:28:23.007Z,87.80
2023-03-18T14:31:11.830Z,90.00
2023-03-18T14:33:54.871Z,91.00
2023-03-18T14:36:41.610Z,92.10
2023-03-18T14:39:16.932Z,93.00
2023-03-18T14:41:49.056Z,93.70
2023-03-18T14:44:22.290Z,94.30
2023-03-18T14:46:53.581Z,94.90
2023-03-18T14:49:38.255Z,95.40
2023-03-18T14:52:17.188Z,95.60
2023-03-18T14:54:48.056Z,95.80
2023-03-18T14:57:16.212Z,95.90
2023-03-18T14:59:45.200Z,96.00
2023-03-18T15:02:23.796Z,96.20
2023-03-18T15:04:54.354Z,96.20
2023-03-18T15:07:26.374Z,96.40
2023-03-18T15:09:56.883Z,96.60
2023-03-18T15:12:27.815Z,96.90
2023-03-18T15:14:55.793Z,96.90
2023-03-18T15:17:27.268Z,96.70
2023-03-18T15:20:00.002Z,96.40
2023-03-18T15:22:30.681Z,96.00
2023-03-18T15:25:02.711Z,95.80
2023-03-18T15:27:33.871Z,95.40
2023-03-18T15:30:04.944Z,95.20
2023-03-18T15:32:34.873Z,95.00
2023-03-18T15:35:16.541Z,94.60
2023-03-18T15:37:46.040Z,94.20
2023-03-18T15:40:38.027Z,93.80
2023-03-18T15:43:19.965Z,93.60
2023-03-18T15:45:53.621Z,93.40
2023-03-18T15:48:25.498Z,93.10
2023-03-18T15:50:55.497Z,92.70
2023-03-18T15:53:25.232Z,92.70
2023-03-18T15:55:56.670Z,92.80
2023-03-18T15:58:28.869Z,92.70
2023-03-18T16:00:58.083Z,92.30
2023-03-18T16:03:29.198Z,92.20
2023-03-18T16:05:58.158Z,92.00
2023-03-18T16:08:28.434Z,91.40
2023-03-18T16:11:02.203Z,91.10
2023-03-18T16:13:33.338Z,91.00
2023-03-18T16:16:01.553Z,91.10
2023-03-18T16:18:29.561Z,90.70
2023-03-18T16:20:57.613Z,90.80
2023-03-18T16:23:25.566Z,90.80
2023-03-18T16:25:56.170Z,91.00
2023-03-18T16:28:28.162Z,91.10
2023-03-18T16:30:57.622Z,91.30
2023-03-18T16:33:26.063Z,91.40
2023-03-18T16:35:58.090Z,91.60
2023-03-18T16:38:27.040Z,91.70
2023-03-18T16:40:55.506Z,91.70
2023-03-18T16:43:27.989Z,91.90
2023-03-18T16:45:59.857Z,91.90
2023-03-18T16:48:28.692Z,91.90
2023-03-18T16:50:58.335Z,92.00
2023-03-18T16:53:29.610Z,92.10
2023-03-18T16:56:00.155Z,92.30
2023-03-18T16:58:33.607Z,92.40
2023-03-18T17:01:01.876Z,92.40
2023-03-18T17:03:31.527Z,92.50
2023-03-18T17:05:59.737Z,92.60
2023-03-18T17:08:27.830Z,92.70
2023-03-18T17:10:59.189Z,92.90
2023-03-18T17:13:31.198Z,93.00
2023-03-18T17:15:59.195Z,93.10
2023-03-18T17:18:27.866Z,93.20
2023-03-18T17:20:55.991Z,93.30
2023-03-18T17:23:25.459Z,93.40
2023-03-18T17:25:55.469Z,93.50
2023-03-18T17:28:32.896Z,93.70
2023-03-18T17:31:01.338Z,93.80
2023-03-18T17:33:31.843Z,93.90
2023-03-18T17:36:01.535Z,94.10
2023-03-18T17:38:30.715Z,94.30
2023-03-18T17:40:59.461Z,94.40
2023-03-18T17:43:29.905Z,94.50
2023-03-18T17:46:00.591Z,94.70
2023-03-18T17:48:30.516Z,94.90
2023-03-18T17:51:00.940Z,95.00
2023-03-18T17:53:33.147Z,95.20
2023-03-18T17:56:02.276Z,95.40
2023-03-18T17:58:31.894Z,95.50
2023-03-18T18:01:05.546Z,95.60
2023-03-18T18:03:35.132Z,95.70
2023-03-18T18:06:03.508Z,95.80
2023-03-18T18:08:32.618Z,96.00
2023-03-18T18:11:14.813Z,96.10
2023-03-18T18:13:43.386Z,96.20
2023-03-18T18:16:12.893Z,96.30
2023-03-18T18:18:41.645Z,96.40
2023-03-18T18:21:14.515Z,96.60
2023-03-18T18:23:44.801Z,96.70
2023-03-18T18:26:15.899Z,96.80
2023-03-18T18:28:47.699Z,96.80
2023-03-18T18:31:19.402Z,97.30
2023-03-18T18:33:49.657Z,97.00
2023-03-18T18:36:18.338Z,97.10
2023-03-18T18:38:46.464Z,97.10
2023-03-18T18:41:14.486Z,97.20
2023-03-18T18:43:42.545Z,97.30
2023-03-18T18:46:14.670Z,97.30
2023-03-18T18:48:48.146Z,97.50
2023-03-18T18:51:18.499Z,97.50
2023-03-18T18:53:47.540Z,97.60
2023-03-18T18:56:18.546Z,97.70
2023-03-18T18:58:48.000Z,97.80
2023-03-18T19:01:19.778Z,97.90
2023-03-18T19:03:49.788Z,98.00
2023-03-18T19:06:25.924Z,98.10
2023-03-18T19:08:55.235Z,98.20
2023-03-18T19:11:24.636Z,98.30
2023-03-18T19:13:53.622Z,98.40
2023-03-18T19:16:30.642Z,98.50
2023-03-18T19:19:01.163Z,98.60
2023-03-18T19:21:29.134Z,98.70
2023-03-18T19:23:58.081Z,98.80
2023-03-18T19:26:26.081Z,98.90
2023-03-18T19:28:59.444Z,99.00
2023-03-18T19:31:31.226Z,99.10
2023-03-18T19:34:02.205Z,99.10
2023-03-18T19:36:32.520Z,99.20
2023-03-18T19:39:02.386Z,99.30
2023-03-18T19:41:30.699Z,99.30
2023-03-18T19:44:04.034Z,99.40
2023-03-18T19:46:38.848Z,99.50
2023-03-18T19:49:16.827Z,99.50
2023-03-18T19:51:44.870Z,99.60
2023-03-18T19:54:27.967Z,99.60
2023-03-18T19:56:57.294Z,99.70
2023-03-18T19:59:33.456Z,99.80
2023-03-18T20:02:05.037Z,99.80
2023-03-18T20:04:34.448Z,99.90
2023-03-18T20:07:03.900Z,99.90
2023-03-18T20:09:31.804Z,99.90
2023-03-18T20:12:04.678Z,99.90
2023-03-18T20:14:37.925Z,99.90
2023-03-18T20:17:35.861Z,99.90
2023-03-18T20:20:06.682Z,99.90
2023-03-18T20:22:38.312Z,99.90
2023-03-18T20:25:08.576Z,99.90
2023-03-18T20:27:36.556Z,99.90
2023-03-18T20:30:16.328Z,99.90
2023-03-18T20:32:44.310Z,99.90
2023-03-18T20:35:13.745Z,99.90
2023-03-18T20:37:41.918Z,99.90
2023-03-18T20:40:18.633Z,99.90
2023-03-18T20:42:46.612Z,99.90
2023-03-18T20:45:15.752Z,99.90
2023-03-18T20:47:44.331Z,99.90
2023-03-18T20:50:16.073Z,99.90
2023-03-18T20:52:45.295Z,99.90
2023-03-18T20:55:22.201Z,99.90
2023-03-18T20:57:50.661Z,99.90
2023-03-18T21:00:23.113Z,99.90
2023-03-18T21:02:52.849Z,99.90
2023-03-18T21:05:23.099Z,99.90
2023-03-18T21:07:51.329Z,99.90
2023-03-18T21:10:21.346Z,99.90
2023-03-18T21:12:50.361Z,99.90
2023-03-18T21:15:20.785Z,99.90
2023-03-18T21:17:49.172Z,99.90
2023-03-18T21:20:22.601Z,99.90
2023-03-18T21:22:52.901Z,99.90
2023-03-18T21:25:23.083Z,99.90
2023-03-18T21:27:52.515Z,99.90
2023-03-18T21:30:22.491Z,99.90
2023-03-18T21:32:52.526Z,99.90
2023-03-18T21:35:22.162Z,99.90
2023-03-18T21:37:51.958Z,99.90
2023-03-18T21:40:21.878Z,99.90
2023-03-18T21:42:51.048Z,99.90
2023-03-18T21:45:21.860Z,99.90
2023-03-18T21:47:50.040Z,99.90
2023-03-18T21:50:21.125Z,99.90
2023-03-18T21:52:49.451Z,99.90
2023-03-18T21:55:19.222Z,99.90
2023-03-18T21:57:48.966Z,99.90
2023-03-18T22:00:19.821Z,99.90
2023-03-18T22:02:48.492Z,99.90
2023-03-18T22:05:18.925Z,99.90
2023-03-18T22:07:47.746Z,99.90
2023-03-18T22:10:18.817Z,99.90
2023-03-18T22:12:46.883Z,99.90
2023-03-18T22:15:37.308Z,99.90
2023-03-18T22:18:06.043Z,99.90
2023-03-18T22:20:35.919Z,99.90
2023-03-18T22:23:13.016Z,99.90
2023-03-18T22:25:42.357Z,99.90
2023-03-18T22:28:12.035Z,99.90
2023-03-18T22:30:42.473Z,99.90
2023-03-18T22:33:19.290Z,99.90
2023-03-18T22:35:47.716Z,99.90
2023-03-18T22:38:16.860Z,99.90
2023-03-18T22:40:48.016Z,99.90
2023-03-18T22:43:28.264Z,99.90
2023-03-18T22:45:56.629Z,99.90
2023-03-18T22:48:24.801Z,99.90
2023-03-18T22:50:53.787Z,99.90
2023-03-18T22:53:24.201Z,99.90
2023-03-18T22:55:56.103Z,99.90
2023-03-18T22:58:26.333Z,99.90
2023-03-18T23:00:55.346Z,99.90
2023-03-18T23:03:26.580Z,99.90
2023-03-18T23:05:56.964Z,99.90
2023-03-18T23:08:25.452Z,99.90
2023-03-18T23:10:56.845Z,99.90
2023-03-18T23:13:29.863Z,99.90
2023-03-18T23:15:59.119Z,99.90
2023-03-18T23:18:27.051Z,99.90
2023-03-18T23:20:55.440Z,99.90
2023-03-18T23:23:23.482Z,99.90
2023-03-18T23:25:52.423Z,99.90
2023-03-18T23:28:21.778Z,99.90
2023-03-18T23:30:52.009Z,99.90
2023-03-18T23:33:20.538Z,99.90
2023-03-18T23:35:49.085Z,99.90
2023-03-18T23:38:17.168Z,99.90
2023-03-18T23:40:45.256Z,99.90
2023-03-18T23:43:13.339Z,99.90
2023-03-18T23:45:42.907Z,99.90
2023-03-18T23:48:11.115Z,99.90
2023-03-18T23:50:39.009Z,99.90
2023-03-18T23:53:06.977Z,99.90
2023-03-18T23:55:35.446Z,99.90
2023-03-18T23:58:03.845Z,99.90
